Thorne, Nevada
Current Conditions -  °F | °C
As of 1:52 AM on Monday 26 Jan 2015 (Local Time) from KBAN Reporting Station
Clear Clear  
Wind Chill: 23°   Ceiling: Unl
Heat Index: 23°   Visibility: NA
Dew Point: 15°   Wind: 0mph
Humidity: 72%   Direction: NA
Pressure: 30.32"   Gusts: NA
Location:  38.6331°N, 118.656°W
Report Text: KBAN 260952Z AUTO 00000KT CLR M05/M09 A3032 RMK AO2 SLP240 T10501094
Loading
Personal Weather Stations






























Interactive Weather Map New forecast layout! Learn more

10-Day Weather Forecast

Advertisements
Track Severe Weather on mobile